sensor_id;sensor_type;location;lat;lon;timestamp;pressure;altitude;pressure_sealevel;temperature;humidity
13581;BME280;6861;46.170;7.222;2023-02-10T00:01:28;97850.97;;;2.46;44.31
13581;BME280;6861;46.170;7.222;2023-02-10T00:03:56;97854.69;;;2.44;44.24
13581;BME280;6861;46.170;7.222;2023-02-10T00:06:26;97881.03;;;2.39;44.69
13581;BME280;6861;46.170;7.222;2023-02-10T00:08:56;97879.13;;;2.25;44.33
13581;BME280;6861;46.170;7.222;2023-02-10T00:11:26;97888.16;;;2.21;44.44
13581;BME280;6861;46.170;7.222;2023-02-10T00:14:11;97870.75;;;2.07;44.95
13581;BME280;6861;46.170;7.222;2023-02-10T00:16:39;97880.94;;;2.00;45.29
13581;BME280;6861;46.170;7.222;2023-02-10T00:19:07;97876.25;;;1.87;45.17
13581;BME280;6861;46.170;7.222;2023-02-10T00:21:36;97873.69;;;1.79;45.55
13581;BME280;6861;46.170;7.222;2023-02-10T00:24:04;97869.19;;;1.65;45.11
13581;BME280;6861;46.170;7.222;2023-02-10T00:26:32;97878.53;;;1.50;45.71
13581;BME280;6861;46.170;7.222;2023-02-10T00:29:00;97874.81;;;1.36;45.97
13581;BME280;6861;46.170;7.222;2023-02-10T00:31:30;97876.22;;;1.22;46.36
13581;BME280;6861;46.170;7.222;2023-02-10T00:33:58;97873.28;;;1.01;47.31
13581;BME280;6861;46.170;7.222;2023-02-10T00:36:26;97865.53;;;0.93;47.40
13581;BME280;6861;46.170;7.222;2023-02-10T00:38:54;97869.06;;;0.84;47.21
13581;BME280;6861;46.170;7.222;2023-02-10T00:41:23;97865.81;;;0.74;48.37
13581;BME280;6861;46.170;7.222;2023-02-10T00:43:51;97870.91;;;0.57;48.42
13581;BME280;6861;46.170;7.222;2023-02-10T00:46:20;97868.59;;;0.46;48.70
13581;BME280;6861;46.170;7.222;2023-02-10T00:48:50;97864.06;;;0.40;48.62
13581;BME280;6861;46.170;7.222;2023-02-10T00:51:18;97857.28;;;0.39;48.65
13581;BME280;6861;46.170;7.222;2023-02-10T00:53:47;97865.06;;;0.47;47.93
13581;BME280;6861;46.170;7.222;2023-02-10T00:56:18;97854.44;;;0.50;48.08
13581;BME280;6861;46.170;7.222;2023-02-10T00:58:47;97857.84;;;0.51;47.96
13581;BME280;6861;46.170;7.222;2023-02-10T01:01:15;97857.34;;;0.47;48.59
13581;BME280;6861;46.170;7.222;2023-02-10T01:03:43;97858.28;;;0.46;48.22
13581;BME280;6861;46.170;7.222;2023-02-10T01:06:14;97859.09;;;0.47;48.27
13581;BME280;6861;46.170;7.222;2023-02-10T01:08:42;97858.28;;;0.46;48.25
13581;BME280;6861;46.170;7.222;2023-02-10T01:11:12;97859.88;;;0.39;48.58
13581;BME280;6861;46.170;7.222;2023-02-10T01:13:41;97851.28;;;0.30;48.39
13581;BME280;6861;46.170;7.222;2023-02-10T01:16:12;97856.94;;;0.34;48.56
13581;BME280;6861;46.170;7.222;2023-02-10T01:18:42;97850.63;;;0.28;48.50
13581;BME280;6861;46.170;7.222;2023-02-10T01:21:14;97857.81;;;0.17;48.90
13581;BME280;6861;46.170;7.222;2023-02-10T01:23:43;97861.91;;;0.02;50.08
13581;BME280;6861;46.170;7.222;2023-02-10T01:26:11;97866.59;;;-0.20;50.67
13581;BME280;6861;46.170;7.222;2023-02-10T01:28:40;97856.78;;;-0.42;51.71
13581;BME280;6861;46.170;7.222;2023-02-10T01:31:10;97865.84;;;-0.56;52.15
13581;BME280;6861;46.170;7.222;2023-02-10T01:33:38;97859.00;;;-0.65;52.48
13581;BME280;6861;46.170;7.222;2023-02-10T01:36:09;97864.59;;;-0.70;52.42
13581;BME280;6861;46.170;7.222;2023-02-10T01:38:39;97871.34;;;-0.69;52.24
13581;BME280;6861;46.170;7.222;2023-02-10T01:41:08;97861.34;;;-0.72;52.03
13581;BME280;6861;46.170;7.222;2023-02-10T01:43:59;97853.34;;;-0.69;51.97
13581;BME280;6861;46.170;7.222;2023-02-10T01:46:29;97853.72;;;-0.63;51.75
13581;BME280;6861;46.170;7.222;2023-02-10T01:49:00;97851.72;;;-0.52;51.40
13581;BME280;6861;46.170;7.222;2023-02-10T01:51:35;97858.41;;;-0.41;50.89
13581;BME280;6861;46.170;7.222;2023-02-10T01:54:10;97858.09;;;-0.38;50.77
13581;BME280;6861;46.170;7.222;2023-02-10T01:56:39;97854.88;;;-0.40;50.79
13581;BME280;6861;46.170;7.222;2023-02-10T01:59:08;97851.34;;;-0.39;50.82
13581;BME280;6861;46.170;7.222;2023-02-10T02:01:36;97851.72;;;-0.34;50.64
13581;BME280;6861;46.170;7.222;2023-02-10T02:04:04;97864.56;;;-0.34;50.75
13581;BME280;6861;46.170;7.222;2023-02-10T02:06:33;97862.00;;;-0.34;50.58
13581;BME280;6861;46.170;7.222;2023-02-10T02:09:02;97871.34;;;-0.33;50.73
13581;BME280;6861;46.170;7.222;2023-02-10T02:11:38;97869.41;;;-0.31;50.34
13581;BME280;6861;46.170;7.222;2023-02-10T02:14:22;97874.56;;;-0.31;49.90
13581;BME280;6861;46.170;7.222;2023-02-10T02:17:03;97871.34;;;-0.33;49.90
13581;BME280;6861;46.170;7.222;2023-02-10T02:23:09;97884.69;;;-0.12;49.38
13581;BME280;6861;46.170;7.222;2023-02-10T02:26:04;97893.28;;;0.05;48.96
13581;BME280;6861;46.170;7.222;2023-02-10T02:28:49;97890.81;;;0.21;
13581;BME280;6861;46.170;7.222;2023-02-10T02:31:44;97896.22;;;0.36;48.39
13581;BME280;6861;46.170;7.222;2023-02-10T02:34:17;97894.34;;;0.46;48.22
13581;BME280;6861;46.170;7.222;2023-02-10T02:36:53;97896.97;;;0.54;48.27
13581;BME280;6861;46.170;7.222;2023-02-10T02:39:23;97904.69;;;0.54;47.74
13581;BME280;6861;46.170;7.222;2023-02-10T02:42:06;97902.47;;;0.59;48.42
13581;BME280;6861;46.170;7.222;2023-02-10T02:44:40;97899.56;;;0.62;48.48
13581;BME280;6861;46.170;7.222;2023-02-10T02:47:14;97906.34;;;0.63;48.03
13581;BME280;6861;46.170;7.222;2023-02-10T02:49:50;97907.81;;;0.66;48.11
13581;BME280;6861;46.170;7.222;2023-02-10T02:52:31;97910.88;;;0.70;48.14
13581;BME280;6861;46.170;7.222;2023-02-10T02:55:13;97910.88;;;0.70;48.21
13581;BME280;6861;46.170;7.222;2023-02-10T02:57:48;97908.81;;;0.73;47.30
13581;BME280;6861;46.170;7.222;2023-02-10T03:00:20;97910.25;;;0.76;47.23
13581;BME280;6861;46.170;7.222;2023-02-10T03:02:52;97921.88;;;0.80;47.10
13581;BME280;6861;46.170;7.222;2023-02-10T03:05:22;97928.34;;;0.84;47.69
13581;BME280;6861;46.170;7.222;2023-02-10T03:07:51;97931.22;;;0.89;47.63
13581;BME280;6861;46.170;7.222;2023-02-10T03:10:19;97932.84;;;0.90;47.42
13581;BME280;6861;46.170;7.222;2023-02-10T03:12:48;97936.06;;;0.92;47.29
13581;BME280;6861;46.170;7.222;2023-02-10T03:15:17;97945.13;;;0.96;47.29
13581;BME280;6861;46.170;7.222;2023-02-10T03:17:45;97940.91;;;0.95;47.54
13581;BME280;6861;46.170;7.222;2023-02-10T03:20:15;97938.81;;;0.90;47.55
13581;BME280;6861;46.170;7.222;2023-02-10T03:22:43;97944.09;;;0.81;47.64
13581;BME280;6861;46.170;7.222;2023-02-10T03:25:11;97946.50;;;0.74;46.98
13581;BME280;6861;46.170;7.222;2023-02-10T03:27:39;97950.19;;;0.72;47.27
13581;BME280;6861;46.170;7.222;2023-02-10T03:30:09;97937.75;;;0.67;47.13
13581;BME280;6861;46.170;7.222;2023-02-10T03:32:37;97927.56;;;0.57;47.49
13581;BME280;6861;46.170;7.222;2023-02-10T03:35:05;97934.63;;;0.55;47.89
13581;BME280;6861;46.170;7.222;2023-02-10T03:37:35;97933.84;;;0.55;47.84
13581;BME280;6861;46.170;7.222;2023-02-10T03:40:03;97924.50;;;0.54;47.52
13581;BME280;6861;46.170;7.222;2023-02-10T03:42:31;97922.72;;;0.54;47.87
13581;BME280;6861;46.170;7.222;2023-02-10T03:44:59;97916.25;;;0.50;47.53
13581;BME280;6861;46.170;7.222;2023-02-10T03:47:27;97909.78;;;0.46;47.73
13581;BME280;6861;46.170;7.222;2023-02-10T03:49:55;97910.09;;;0.43;47.33
13581;BME280;6861;46.170;7.222;2023-02-10T03:52:23;97910.41;;;0.40;47.61
13581;BME280;6861;46.170;7.222;2023-02-10T03:54:53;97917.78;;;0.35;47.10
13581;BME280;6861;46.170;7.222;2023-02-10T03:57:21;97919.69;;;0.33;47.54
13581;BME280;6861;46.170;7.222;2023-02-10T03:59:49;97921.31;;;0.34;47.10
13581;BME280;6861;46.170;7.222;2023-02-10T04:02:17;97931.66;;;0.42;46.73
13581;BME280;6861;46.170;7.222;2023-02-10T04:04:45;97935.41;;;0.48;47.02
13581;BME280;6861;46.170;7.222;2023-02-10T04:07:13;97941.22;;;0.50;46.55
13581;BME280;6861;46.170;7.222;2023-02-10T04:09:41;97941.88;;;0.52;46.49
13581;BME280;6861;46.170;7.222;2023-02-10T04:12:11;97944.94;;;0.55;46.92
13581;BME280;6861;46.170;7.222;2023-02-10T04:14:39;97945.56;;;0.49;46.48
13581;BME280;6861;46.170;7.222;2023-02-10T04:17:07;97955.69;;;0.51;46.21
13581;BME280;6861;46.170;7.222;2023-02-10T04:19:35;97952.53;;;0.57;46.35
13581;BME280;6861;46.170;7.222;2023-02-10T04:22:03;97952.72;;;0.63;46.50
13581;BME280;6861;46.170;7.222;2023-02-10T04:24:31;97959.19;;;0.68;46.70
13581;BME280;6861;46.170;7.222;2023-02-10T04:26:59;97954.63;;;0.61;46.06
13581;BME280;6861;46.170;7.222;2023-02-10T04:29:29;97957.53;;;0.58;46.40
13581;BME280;6861;46.170;7.222;2023-02-10T04:31:57;97956.97;;;0.47;46.73
13581;BME280;6861;46.170;7.222;2023-02-10T04:34:25;97958.16;;;0.35;46.49
13581;BME280;6861;46.170;7.222;2023-02-10T04:36:53;97958.13;;;0.26;47.12
13581;BME280;6861;46.170;7.222;2023-02-10T04:39:21;97951.28;;;0.17;46.91
13581;BME280;6861;46.170;7.222;2023-02-10T04:41:49;97946.22;;;0.08;47.21
13581;BME280;6861;46.170;7.222;2023-02-10T04:44:17;97951.66;;;-0.04;47.21
13581;BME280;6861;46.170;7.222;2023-02-10T04:46:46;97946.13;;;-0.09;47.68
13581;BME280;6861;46.170;7.222;2023-02-10T04:49:16;97946.06;;;-0.17;47.82
13581;BME280;6861;46.170;7.222;2023-02-10T04:51:45;97952.97;;;-0.17;47.98
13581;BME280;6861;46.170;7.222;2023-02-10T04:54:14;97957.59;;;-0.21;47.64
13581;BME280;6861;46.170;7.222;2023-02-10T04:56:42;97954.66;;;-0.26;47.37
13581;BME280;6861;46.170;7.222;2023-02-10T04:59:10;97956.94;;;-0.23;47.62
13581;BME280;6861;46.170;7.222;2023-02-10T05:01:38;97953.78;;;-0.17;47.57
13581;BME280;6861;46.170;7.222;2023-02-10T05:04:08;97955.75;;;-0.11;47.50
13581;BME280;6861;46.170;7.222;2023-02-10T05:06:36;97963.22;;;0.00;47.18
13581;BME280;6861;46.170;7.222;2023-02-10T05:09:04;97960.13;;;0.15;46.92
13581;BME280;6861;46.170;7.222;2023-02-10T05:11:32;97965.34;;;0.23;46.53
13581;BME280;6861;46.170;7.222;2023-02-10T05:14:00;97967.53;;;0.18;46.95
13581;BME280;6861;46.170;7.222;2023-02-10T05:16:28;97963.66;;;0.14;46.62
13581;BME280;6861;46.170;7.222;2023-02-10T05:18:56;97954.63;;;0.10;47.02
13581;BME280;6861;46.170;7.222;2023-02-10T05:21:26;97961.00;;;0.06;46.79
13581;BME280;6861;46.170;7.222;2023-02-10T05:23:54;97961.94;;;-0.04;47.03
13581;BME280;6861;46.170;7.222;2023-02-10T05:26:22;97966.50;;;-0.15;47.43
13581;BME280;6861;46.170;7.222;2023-02-10T05:28:50;97958.13;;;-0.35;47.78
13581;BME280;6861;46.170;7.222;2023-02-10T05:31:18;97955.09;;;-0.48;48.24
13581;BME280;6861;46.170;7.222;2023-02-10T05:33:46;97953.91;;;-0.54;48.23
13581;BME280;6861;46.170;7.222;2023-02-10T05:36:14;97961.41;;;-0.60;48.39
13581;BME280;6861;46.170;7.222;2023-02-10T05:38:43;97955.22;;;-0.68;48.52
13581;BME280;6861;46.170;7.222;2023-02-10T05:41:32;97965.28;;;-0.74;48.67
13581;BME280;6861;46.170;7.222;2023-02-10T05:44:01;97958.38;;;-0.74;48.57
13581;BME280;6861;46.170;7.222;2023-02-10T05:46:30;97954.63;;;-0.61;48.29
13581;BME280;6861;46.170;7.222;2023-02-10T05:48:58;97964.28;;;-0.46;47.94
13581;BME280;6861;46.170;7.222;2023-02-10T05:51:26;97968.03;;;-0.40;47.84
13581;BME280;6861;46.170;7.222;2023-02-10T05:53:56;97973.25;;;-0.32;47.15
13581;BME280;6861;46.170;7.222;2023-02-10T05:56:23;97973.47;;;-0.25;47.60
13581;BME280;6861;46.170;7.222;2023-02-10T05:58:52;97986.34;;;-0.25;47.61
13581;BME280;6861;46.170;7.222;2023-02-10T06:01:20;97983.69;;;-0.34;47.75
13581;BME280;6861;46.170;7.222;2023-02-10T06:03:48;97981.84;;;-0.41;47.98
13581;BME280;6861;46.170;7.222;2023-02-10T06:06:16;97980.53;;;-0.45;47.93
13581;BME280;6861;46.170;7.222;2023-02-10T06:08:44;97983.69;;;-0.51;47.73
13581;BME280;6861;46.170;7.222;2023-02-10T06:11:13;97981.63;;;-0.48;47.94
13581;BME280;6861;46.170;7.222;2023-02-10T06:13:42;97986.47;;;-0.45;48.00
13581;BME280;6861;46.170;7.222;2023-02-10T06:16:10;97984.84;;;-0.46;47.95
13581;BME280;6861;46.170;7.222;2023-02-10T06:18:38;97992.94;;;-0.41;47.78
13581;BME280;6861;46.170;7.222;2023-02-10T06:21:06;97996.31;;;-0.40;47.79
13581;BME280;6861;46.170;7.222;2023-02-10T06:23:35;97997.13;;;-0.40;47.86
13581;BME280;6861;46.170;7.222;2023-02-10T06:26:03;97996.69;;;-0.35;47.68
13581;BME280;6861;46.170;7.222;2023-02-10T06:28:32;97991.56;;;-0.35;47.34
13581;BME280;6861;46.170;7.222;2023-02-10T06:31:00;97997.00;;;-0.38;47.43
13581;BME280;6861;46.170;7.222;2023-02-10T06:33:29;98000.00;;;-0.43;47.57
13581;BME280;6861;46.170;7.222;2023-02-10T06:35:57;98004.63;;;-0.46;47.87
13581;BME280;6861;46.170;7.222;2023-02-10T06:38:25;98002.47;;;-0.51;47.82
13581;BME280;6861;46.170;7.222;2023-02-10T06:40:53;98010.25;;;-0.60;48.06
13581;BME280;6861;46.170;7.222;2023-02-10T06:43:21;98009.06;;;-0.66;48.09
13581;BME280;6861;46.170;7.222;2023-02-10T06:45:51;98011.25;;;-0.71;48.25
13581;BME280;6861;46.170;7.222;2023-02-10T06:48:19;98024.53;;;-0.76;48.40
13581;BME280;6861;46.170;7.222;2023-02-10T06:50:47;98013.19;;;-0.83;48.41
13581;BME280;6861;46.170;7.222;2023-02-10T06:53:15;98024.44;;;-0.84;48.57
13581;BME280;6861;46.170;7.222;2023-02-10T06:55:43;98024.56;;;-0.85;48.63
13581;BME280;6861;46.170;7.222;2023-02-10T06:58:11;98018.63;;;-0.86;48.59
13581;BME280;6861;46.170;7.222;2023-02-10T07:00:39;98030.25;;;-0.82;48.52
13581;BME280;6861;46.170;7.222;2023-02-10T07:03:11;98035.66;;;-0.85;48.57
13581;BME280;6861;46.170;7.222;2023-02-10T07:05:40;98033.97;;;-0.94;48.86
13581;BME280;6861;46.170;7.222;2023-02-10T07:08:08;98031.16;;;-1.01;49.12
13581;BME280;6861;46.170;7.222;2023-02-10T07:10:36;98026.69;;;-0.98;49.01
13581;BME280;6861;46.170;7.222;2023-02-10T07:13:04;98037.38;;;-1.03;49.28
13581;BME280;6861;46.170;7.222;2023-02-10T07:15:33;98038.72;;;-0.99;48.96
13581;BME280;6861;46.170;7.222;2023-02-10T07:18:01;98037.06;;;-0.90;49.12
13581;BME280;6861;46.170;7.222;2023-02-10T07:20:30;98038.09;;;-0.83;48.93
13581;BME280;6861;46.170;7.222;2023-02-10T07:22:59;98037.91;;;-0.72;48.50
13581;BME280;6861;46.170;7.222;2023-02-10T07:25:27;98040.19;;;-0.69;48.63
13581;BME280;6861;46.170;7.222;2023-02-10T07:27:55;98038.81;;;-0.63;48.50
13581;BME280;6861;46.170;7.222;2023-02-10T07:30:23;98036.63;;;-0.58;48.60
13581;BME280;6861;46.170;7.222;2023-02-10T07:32:51;98034.16;;;-0.50;48.11
13581;BME280;6861;46.170;7.222;2023-02-10T07:35:19;98043.88;;;-0.44;48.48
13581;BME280;6861;46.170;7.222;2023-02-10T07:37:50;98046.81;;;-0.39;48.05
13581;BME280;6861;46.170;7.222;2023-02-10T07:40:18;98045.94;;;-0.30;47.86
13581;BME280;6861;46.170;7.222;2023-02-10T07:42:48;98041.31;;;-0.26;48.04
13581;BME280;6861;46.170;7.222;2023-02-10T07:45:16;98040.50;;;-0.27;48.01
13581;BME280;6861;46.170;7.222;2023-02-10T07:47:44;98044.03;;;-0.28;47.91
13581;BME280;6861;46.170;7.222;2023-02-10T07:50:12;98041.84;;;-0.23;47.84
13581;BME280;6861;46.170;7.222;2023-02-10T07:52:40;98044.03;;;-0.28;48.25
13581;BME280;6861;46.170;7.222;2023-02-10T07:55:11;98046.63;;;-0.28;48.12
13581;BME280;6861;46.170;7.222;2023-02-10T07:57:39;98046.91;;;-0.31;48.12
13581;BME280;6861;46.170;7.222;2023-02-10T08:00:09;98046.63;;;-0.28;48.13
13581;BME280;6861;46.170;7.222;2023-02-10T08:02:38;98047.84;;;-0.32;48.34
13581;BME280;6861;46.170;7.222;2023-02-10T08:05:07;98049.75;;;-0.34;48.33
13581;BME280;6861;46.170;7.222;2023-02-10T08:07:36;98055.19;;;-0.37;48.41
13581;BME280;6861;46.170;7.222;2023-02-10T08:10:05;98048.53;;;-0.30;48.14
13581;BME280;6861;46.170;7.222;2023-02-10T08:12:34;98052.13;;;-0.23;48.16
13581;BME280;6861;46.170;7.222;2023-02-10T08:15:03;98053.91;;;-0.23;48.14
13581;BME280;6861;46.170;7.222;2023-02-10T08:17:31;98052.66;;;-0.19;48.18
13581;BME280;6861;46.170;7.222;2023-02-10T08:19:59;98050.88;;;-0.19;48.02
13581;BME280;6861;46.170;7.222;2023-02-10T08:22:28;98049.94;;;-0.18;48.24
13581;BME280;6861;46.170;7.222;2023-02-10T08:24:56;98048.69;;;-0.14;47.97
13581;BME280;6861;46.170;7.222;2023-02-10T08:27:24;98045.53;;;-0.08;47.76
13581;BME280;6861;46.170;7.222;2023-02-10T08:29:53;98057.97;;;-0.03;47.80
13581;BME280;6861;46.170;7.222;2023-02-10T08:32:22;98056.06;;;-0.01;47.66
13581;BME280;6861;46.170;7.222;2023-02-10T08:34:50;98050.72;;;0.00;47.66
13581;BME280;6861;46.170;7.222;2023-02-10T08:37:18;98050.44;;;0.04;47.78
13581;BME280;6861;46.170;7.222;2023-02-10T08:39:48;98052.41;;;0.10;47.61
13581;BME280;6861;46.170;7.222;2023-02-10T08:42:16;98053.44;;;0.17;47.32
13581;BME280;6861;46.170;7.222;2023-02-10T08:44:44;98050.72;;;0.18;47.33
13581;BME280;6861;46.170;7.222;2023-02-10T08:47:13;98055.06;;;0.18;47.67
13581;BME280;6861;46.170;7.222;2023-02-10T08:49:42;98049.91;;;0.18;47.46
13581;BME280;6861;46.170;7.222;2023-02-10T08:52:10;98044.13;;;0.16;47.48
13581;BME280;6861;46.170;7.222;2023-02-10T08:54:38;98039.91;;;0.15;47.49
13581;BME280;6861;46.170;7.222;2023-02-10T08:57:06;98042.06;;;0.19;47.16
13581;BME280;6861;46.170;7.222;2023-02-10T08:59:34;98042.06;;;0.19;47.30
13581;BME280;6861;46.170;7.222;2023-02-10T09:02:02;98033.88;;;0.24;47.91
13581;BME280;6861;46.170;7.222;2023-02-10T09:04:32;98037.25;;;0.24;47.36
13581;BME280;6861;46.170;7.222;2023-02-10T09:07:00;98038.16;;;0.33;47.23
13581;BME280;6861;46.170;7.222;2023-02-10T09:09:28;98033.72;;;0.43;47.08
13581;BME280;6861;46.170;7.222;2023-02-10T09:11:56;98029.13;;;0.55;47.31
13581;BME280;6861;46.170;7.222;2023-02-10T09:14:24;98019.41;;;0.67;47.35
13581;BME280;6861;46.170;7.222;2023-02-10T09:16:52;98022.69;;;0.77;47.07
13581;BME280;6861;46.170;7.222;2023-02-10T09:19:21;98012.72;;;0.82;46.45
13581;BME280;6861;46.170;7.222;2023-02-10T09:21:51;98023.72;;;0.92;46.54
13581;BME280;6861;46.170;7.222;2023-02-10T09:24:22;98022.94;;;0.99;46.38
13581;BME280;6861;46.170;7.222;2023-02-10T09:26:50;98027.03;;;1.10;45.73
13581;BME280;6861;46.170;7.222;2023-02-10T09:29:18;98022.88;;;1.17;46.61
13581;BME280;6861;46.170;7.222;2023-02-10T09:31:46;98021.13;;;1.26;45.94
13581;BME280;6861;46.170;7.222;2023-02-10T09:34:14;98011.00;;;1.33;46.36
13581;BME280;6861;46.170;7.222;2023-02-10T09:36:42;98010.06;;;1.42;45.71
13581;BME280;6861;46.170;7.222;2023-02-10T09:39:12;98012.34;;;1.45;45.22
13581;BME280;6861;46.170;7.222;2023-02-10T09:41:50;98013.97;;;1.46;45.73
13581;BME280;6861;46.170;7.222;2023-02-10T09:44:21;98008.47;;;1.49;45.27
13581;BME280;6861;46.170;7.222;2023-02-10T09:47:02;98007.53;;;1.50;45.90
13581;BME280;6861;46.170;7.222;2023-02-10T09:49:45;98004.16;;;1.57;45.09
13581;BME280;6861;46.170;7.222;2023-02-10T09:52:22;98013.34;;;1.60;45.83
13581;BME280;6861;46.170;7.222;2023-02-10T09:54:55;97999.31;;;1.54;45.41
13581;BME280;6861;46.170;7.222;2023-02-10T09:57:30;98004.16;;;1.57;44.86
13581;BME280;6861;46.170;7.222;2023-02-10T10:00:03;98008.03;;;1.61;44.57
13581;BME280;6861;46.170;7.222;2023-02-10T10:02:35;98003.38;;;1.65;44.74
13581;BME280;6861;46.170;7.222;2023-02-10T10:05:19;97992.56;;;1.70;45.10
13581;BME280;6861;46.170;7.222;2023-02-10T10:07:53;97993.38;;;1.78;44.93
13581;BME280;6861;46.170;7.222;2023-02-10T10:10:26;97990.47;;;1.81;44.06
13581;BME280;6861;46.170;7.222;2023-02-10T10:12:57;97990.81;;;1.86;44.93
13581;BME280;6861;46.170;7.222;2023-02-10T10:15:31;97984.34;;;1.90;44.17
13581;BME280;6861;46.170;7.222;2023-02-10T10:18:10;97979.50;;;1.87;44.15
13581;BME280;6861;46.170;7.222;2023-02-10T10:20:50;97978.69;;;1.87;44.38
13581;BME280;6861;46.170;7.222;2023-02-10T10:23:30;97973.06;;;1.83;44.63
13581;BME280;6861;46.170;7.222;2023-02-10T10:26:11;97978.03;;;1.77;44.44
13581;BME280;6861;46.170;7.222;2023-02-10T10:29:02;97972.72;;;1.78;43.60
13581;BME280;6861;46.170;7.222;2023-02-10T10:31:37;97974.00;;;1.82;44.30
13581;BME280;6861;46.170;7.222;2023-02-10T10:34:12;97970.47;;;1.91;43.80
13581;BME280;6861;46.170;7.222;2023-02-10T10:36:43;97974.34;;;2.04;43.58
13581;BME280;6861;46.170;7.222;2023-02-10T10:39:15;97959.84;;;2.11;44.23
13581;BME280;6861;46.170;7.222;2023-02-10T10:41:47;97960.81;;;2.18;43.65
13581;BME280;6861;46.170;7.222;2023-02-10T10:44:17;97958.53;;;2.23;43.83
13581;BME280;6861;46.170;7.222;2023-02-10T10:46:48;97953.19;;;2.41;43.47
13581;BME280;6861;46.170;7.222;2023-02-10T10:49:17;97945.97;;;2.83;43.86
13581;BME280;6861;46.170;7.222;2023-02-10T10:51:46;97946.81;;;3.46;43.02
13581;BME280;6861;46.170;7.222;2023-02-10T10:54:17;97945.38;;;4.12;42.81
13581;BME280;6861;46.170;7.222;2023-02-10T10:56:49;97943.81;;;4.84;42.51
13581;BME280;6861;46.170;7.222;2023-02-10T10:59:21;97930.63;;;5.51;41.98
13581;BME280;6861;46.170;7.222;2023-02-10T11:01:51;97933.25;;;6.15;41.33
13581;BME280;6861;46.170;7.222;2023-02-10T11:04:21;97935.56;;;6.60;40.04
13581;BME280;6861;46.170;7.222;2023-02-10T11:06:52;97918.72;;;6.97;39.66
13581;BME280;6861;46.170;7.222;2023-02-10T11:09:24;97921.09;;;7.33;39.63
13581;BME280;6861;46.170;7.222;2023-02-10T11:12:01;97913.16;;;7.67;39.01
13581;BME280;6861;46.170;7.222;2023-02-10T11:14:37;97907.16;;;7.93;37.99
13581;BME280;6861;46.170;7.222;2023-02-10T11:17:18;97905.75;;;8.10;37.06
13581;BME280;6861;46.170;7.222;2023-02-10T11:19:54;97901.53;;;8.22;36.63
13581;BME280;6861;46.170;7.222;2023-02-10T11:22:22;97901.97;;;8.33;37.05
13581;BME280;6861;46.170;7.222;2023-02-10T11:24:53;97900.75;;;8.35;37.25
13581;BME280;6861;46.170;7.222;2023-02-10T11:27:23;97892.31;;;8.40;36.42
13581;BME280;6861;46.170;7.222;2023-02-10T11:29:53;97883.09;;;8.37;35.18
13581;BME280;6861;46.170;7.222;2023-02-10T11:32:25;97887.72;;;8.35;35.85
13581;BME280;6861;46.170;7.222;2023-02-10T11:34:55;97880.91;;;8.34;35.09
13581;BME280;6861;46.170;7.222;2023-02-10T11:37:27;97878.84;;;8.30;35.45
13581;BME280;6861;46.170;7.222;2023-02-10T11:39:57;97885.28;;;8.27;35.23
13581;BME280;6861;46.170;7.222;2023-02-10T11:42:30;97870.44;;;8.21;34.53
13581;BME280;6861;46.170;7.222;2023-02-10T11:45:01;97865.03;;;8.16;33.94
13581;BME280;6861;46.170;7.222;2023-02-10T11:47:31;97865.44;;;8.13;34.85
13581;BME280;6861;46.170;7.222;2023-02-10T11:49:59;97866.03;;;8.08;34.46
13581;BME280;6861;46.170;7.222;2023-02-10T11:52:29;97857.81;;;8.05;34.40
13581;BME280;6861;46.170;7.222;2023-02-10T11:54:59;97849.19;;;7.98;33.81
13581;BME280;6861;46.170;7.222;2023-02-10T11:57:40;97842.59;;;7.88;34.20
13581;BME280;6861;46.170;7.222;2023-02-10T12:00:32;97834.59;;;7.77;34.00
13581;BME280;6861;46.170;7.222;2023-02-10T12:06:04;97820.94;;;7.55;33.84
13581;BME280;6861;46.170;7.222;2023-02-10T12:08:42;97827.56;;;7.44;33.12
13581;BME280;6861;46.170;7.222;2023-02-10T12:11:20;97819.72;;;7.38;33.00
13581;BME280;6861;46.170;7.222;2023-02-10T12:14:01;97814.91;;;7.35;33.92
13581;BME280;6861;46.170;7.222;2023-02-10T12:16:36;97813.31;;;7.34;33.13
13581;BME280;6861;46.170;7.222;2023-02-10T12:19:19;97798.50;;;7.34;33.70
13581;BME280;6861;46.170;7.222;2023-02-10T12:21:57;97798.50;;;7.34;32.65
13581;BME280;6861;46.170;7.222;2023-02-10T12:24:45;97795.69;;;7.36;32.33
13581;BME280;6861;46.170;7.222;2023-02-10T12:27:21;97789.06;;;7.33;33.25
13581;BME280;6861;46.170;7.222;2023-02-10T12:30:00;97783.84;;;7.27;32.63
13581;BME280;6861;46.170;7.222;2023-02-10T12:32:39;97781.66;;;7.23;32.90
13581;BME280;6861;46.170;7.222;2023-02-10T12:35:19;97776.22;;;7.18;31.73
13581;BME280;6861;46.170;7.222;2023-02-10T12:37:58;97775.63;;;7.16;32.06
13581;BME280;6861;46.170;7.222;2023-02-10T12:40:39;97767.22;;;7.14;32.14
13581;BME280;6861;46.170;7.222;2023-02-10T12:43:23;97766.00;;;7.10;31.75
13581;BME280;6861;46.170;7.222;2023-02-10T12:46:01;97760.00;;;7.16;31.41
13581;BME280;6861;46.170;7.222;2023-02-10T12:48:40;97761.22;;;7.20;32.23
13581;BME280;6861;46.170;7.222;2023-02-10T12:51:24;97755.22;;;7.27;31.58
13581;BME280;6861;46.170;7.222;2023-02-10T12:53:59;97760.03;;;7.30;31.51
13581;BME280;6861;46.170;7.222;2023-02-10T12:56:33;97759.63;;;7.33;32.18
13581;BME280;6861;46.170;7.222;2023-02-10T12:59:07;97757.22;;;7.38;30.75
13581;BME280;6861;46.170;7.222;2023-02-10T13:01:42;97755.63;;;7.43;31.36
13581;BME280;6861;46.170;7.222;2023-02-10T13:04:16;97748.81;;;7.49;31.28
13581;BME280;6861;46.170;7.222;2023-02-10T13:06:49;97749.63;;;7.56;32.00
13581;BME280;6861;46.170;7.222;2023-02-10T13:09:23;97747.81;;;7.63;31.45
13581;BME280;6861;46.170;7.222;2023-02-10T13:12:05;97754.81;;;7.69;31.23
13581;BME280;6861;46.170;7.222;2023-02-10T13:14:39;97748.38;;;7.78;31.97
13581;BME280;6861;46.170;7.222;2023-02-10T13:17:10;97753.38;;;7.86;30.90
13581;BME280;6861;46.170;7.222;2023-02-10T13:19:49;97747.94;;;7.95;31.08
13581;BME280;6861;46.170;7.222;2023-02-10T13:22:22;97753.94;;;8.02;31.38
13581;BME280;6861;46.170;7.222;2023-02-10T13:24:59;97743.09;;;8.05;30.94
13581;BME280;6861;46.170;7.222;2023-02-10T13:27:37;97737.88;;;8.05;30.71
13581;BME280;6861;46.170;7.222;2023-02-10T13:30:33;97745.50;;;8.06;31.77
13581;BME280;6861;46.170;7.222;2023-02-10T13:33:13;97741.09;;;8.07;30.83
13581;BME280;6861;46.170;7.222;2023-02-10T13:35:44;97740.28;;;8.13;30.75
13581;BME280;6861;46.170;7.222;2023-02-10T13:38:16;97737.25;;;8.16;31.55
13581;BME280;6861;46.170;7.222;2023-02-10T13:40:47;97735.84;;;8.20;30.99
13581;BME280;6861;46.170;7.222;2023-02-10T13:43:27;97733.81;;;8.29;30.72
13581;BME280;6861;46.170;7.222;2023-02-10T13:45:59;97735.03;;;8.33;31.63